首页
METAR-TAF:

METAR-TAF

机场 :

圣加仑, 瑞士

纬度: 47-29-06N, 经度: 009-33-43E, 海拔: 398米

当前天气观测

该预报发布于10分钟前的01:20 UTC
风速3节,风向,在东北东南之间变化
温度 2°C
湿度 75%
气压 1003 hPa
能见度10公里或以上
1500米以下无云,无积雨云

METAR: LSZR 140120Z AUTO 09003KT 050V140 CAVOK 02/M02 Q1003

时间: 02:30 (01:30 UTC)

预报

该预报发布于11小时和5分钟前的14:25 UTC
预报有效从13日的 15点(UTC)到 13日的 24点(UTC)
风速3节,风向多变
能见度10公里或以上
散云层高于4500英尺
多云层高于8500英尺
成为
从 13日的 16点(UTC)到 13日的 19点(UTC)
能见度10公里或以上
1500米以下无云,无积雨云

TAF: LSZR 131425Z 1315/1324 VRB03KT 9999 SCT045 BKN085 BECMG 1316/1319 CAVOK

超过4000个机场的气象观测和天气预报(METAR&TAF报告)。

可查询的气象台以黄色和红色小点在地图上表示。

将鼠标移到小点上方,可查看气象台名称。

然后点击查看天气观测和预报。

如需切换地图:点击带黑十字的绿色按钮放大地图;点击带横线的绿色按钮缩小地图;或者点击绿色箭头查看邻近地区的地图。


METAR-TAF: